Time;durP1;ratioP1;P1;durP2;ratioP2;P2;SDS_P1;SDS_P2;PMS_P1;PMS_P2;Temp;Humidity;BMP_temperature;BMP_pressure;BME280_temperature;BME280_humidity;BME280_pressure;Samples;Min_cycle;Max_cycle;Signal;HPM_P1;HPM_P2
2022/10/09 00:01:17;;;;;;;13.63;1.98;;;12.60;99.90;;;;;;4972154;28;20038;-64
2022/10/09 00:03:45;;;;;;;10.32;1.70;;;12.70;99.90;;;;;;4955360;28;20480;-64
2022/10/09 00:06:14;;;;;;;11.07;1.33;;;12.70;99.90;;;;;;4938859;28;20038;-64
2022/10/09 00:08:42;;;;;;;6.95;1.80;;;12.60;99.90;;;;;;4971579;28;20488;-64
2022/10/09 00:11:10;;;;;;;5.95;1.40;;;12.60;99.90;;;;;;4971079;28;20046;-64
2022/10/09 00:13:36;;;;;;;5.03;1.10;;;12.40;99.90;;;;;;4971049;28;20046;-64
2022/10/09 00:16:04;;;;;;;7.57;1.30;;;12.10;99.90;;;;;;4941476;28;20144;-64
2022/10/09 00:18:30;;;;;;;8.00;1.50;;;12.20;99.90;;;;;;4969869;28;20468;-64
2022/10/09 00:20:56;;;;;;;8.55;1.80;;;12.00;99.90;;;;;;4971908;28;20058;-64
2022/10/09 00:23:22;;;;;;;7.63;1.70;;;11.90;99.90;;;;;;4972474;28;20548;-64
2022/10/09 00:25:59;;;;;;;10.35;2.53;;;12.00;99.90;;;;;;4972345;28;20027;-64
2022/10/09 00:28:27;;;;;;;13.05;1.65;;;11.90;99.90;;;;;;4953122;28;20469;-64
2022/10/09 00:30:53;;;;;;;7.35;1.60;;;11.90;99.90;;;;;;4969077;28;20034;-63
2022/10/09 00:33:19;;;;;;;10.45;1.83;;;12.10;99.90;;;;;;4947612;28;20035;-64
2022/10/09 00:35:45;;;;;;;10.15;1.60;;;12.10;99.90;;;;;;4971152;28;20116;-64
2022/10/09 00:38:11;;;;;;;8.77;1.30;;;12.00;99.90;;;;;;4970602;28;20118;-64
2022/10/09 00:40:37;;;;;;;6.55;1.30;;;11.90;99.90;;;;;;4978456;28;20041;-63
2022/10/09 00:43:03;;;;;;;7.85;1.50;;;11.90;99.90;;;;;;4976090;28;20039;-64
2022/10/09 00:45:30;;;;;;;7.63;1.50;;;11.70;99.90;;;;;;4975454;28;20392;-64
2022/10/09 00:48:03;;;;;;;6.47;1.60;;;11.50;99.90;;;;;;4958139;28;20476;-64
2022/10/09 00:50:43;;;;;;;6.63;1.52;;;11.50;99.90;;;;;;4975021;28;20156;-64
2022/10/09 00:53:12;;;;;;;4.63;1.38;;;11.40;99.90;;;;;;4955004;29;20134;-64
2022/10/09 00:55:38;;;;;;;6.20;1.63;;;11.30;99.90;;;;;;4945907;28;20044;-64
2022/10/09 00:58:04;;;;;;;9.15;1.42;;;11.10;99.90;;;;;;4947692;28;20397;-63
2022/10/09 01:00:30;;;;;;;5.72;1.67;;;11.00;99.90;;;;;;4954863;28;20071;-64
2022/10/09 01:02:56;;;;;;;5.47;1.50;;;11.30;99.90;;;;;;4938061;29;20134;-63
2022/10/09 01:05:31;;;;;;;8.23;1.50;;;11.20;99.90;;;;;;4937072;29;20484;-63
2022/10/09 01:08:09;;;;;;;4.88;1.42;;;11.10;99.90;;;;;;4947017;28;20049;-64
2022/10/09 01:10:43;;;;;;;7.85;2.10;;;11.10;99.90;;;;;;4951767;29;20036;-64
2022/10/09 01:13:25;;;;;;;6.82;1.60;;;11.00;99.90;;;;;;4937153;29;20413;-64
2022/10/09 01:16:00;;;;;;;5.88;1.60;;;11.20;99.90;;;;;;4937091;29;20401;-64
2022/10/09 01:18:50;;;;;;;11.38;2.03;;;11.00;99.90;;;;;;4948712;28;20046;-64
2022/10/09 01:21:19;;;;;;;4.38;1.80;;;11.10;99.90;;;;;;4937155;29;20057;-64
2022/10/09 01:24:02;;;;;;;9.90;1.70;;;11.30;99.90;;;;;;4954199;28;20043;-64
2022/10/09 01:26:33;;;;;;;8.63;2.60;;;11.30;99.90;;;;;;4956265;29;20054;-64
2022/10/09 01:29:05;;;;;;;10.57;2.08;;;11.20;99.90;;;;;;4952211;28;20190;-63
2022/10/09 01:31:35;;;;;;;8.15;2.20;;;11.20;99.90;;;;;;4955015;29;20059;-64
2022/10/09 01:34:02;;;;;;;6.82;1.70;;;11.40;99.90;;;;;;4951710;29;20540;-64
2022/10/09 01:36:32;;;;;;;8.38;2.08;;;11.30;99.90;;;;;;4945999;29;20069;-64
2022/10/09 01:39:00;;;;;;;6.80;2.00;;;11.20;99.90;;;;;;4929224;29;20039;-64
2022/10/09 01:41:26;;;;;;;6.70;2.08;;;11.40;99.90;;;;;;4955374;28;20035;-64
2022/10/09 01:43:52;;;;;;;9.30;2.00;;;11.10;99.90;;;;;;4955902;28;20043;-64
2022/10/09 01:46:22;;;;;;;5.88;1.85;;;11.20;99.90;;;;;;4955612;29;20485;-64
2022/10/09 01:49:01;;;;;;;6.88;1.95;;;11.30;99.90;;;;;;4952122;28;20055;-64
2022/10/09 01:51:37;;;;;;;6.82;1.98;;;11.10;99.90;;;;;;4948350;28;20043;-64
2022/10/09 01:54:06;;;;;;;10.55;2.75;;;11.00;99.90;;;;;;4970468;28;20063;-64
2022/10/09 01:56:36;;;;;;;7.38;2.03;;;11.00;99.90;;;;;;4974091;28;20042;-64
2022/10/09 01:59:10;;;;;;;6.22;2.20;;;11.00;99.90;;;;;;4974586;28;20111;-64
2022/10/09 02:01:38;;;;;;;8.13;2.10;;;11.00;99.90;;;;;;4973021;28;20042;-65
2022/10/09 02:04:07;;;;;;;13.35;2.53;;;11.70;99.90;;;;;;4964518;28;20570;-64
2022/10/09 02:06:34;;;;;;;8.65;2.17;;;11.20;99.90;;;;;;4971917;28;20086;-64
2022/10/09 02:09:02;;;;;;;5.88;2.13;;;11.50;99.90;;;;;;4945120;28;20049;-64
2022/10/09 02:11:30;;;;;;;7.75;2.20;;;11.20;99.90;;;;;;4957021;28;20101;-64
2022/10/09 02:13:57;;;;;;;4.57;1.92;;;11.20;99.90;;;;;;4974468;28;20356;-64
2022/10/09 02:16:37;;;;;;;10.90;2.22;;;11.00;99.90;;;;;;4955420;28;20042;-63
2022/10/09 02:19:22;;;;;;;8.18;2.00;;;11.30;99.90;;;;;;4952682;28;20065;-64
2022/10/09 02:21:55;;;;;;;7.07;1.70;;;11.30;99.90;;;;;;4973457;28;20046;-64
2022/10/09 02:24:22;;;;;;;10.57;2.03;;;11.20;99.90;;;;;;4973591;28;20074;-64
2022/10/09 02:26:50;;;;;;;14.27;2.50;;;10.80;99.90;;;;;;4973984;28;20081;-64
2022/10/09 02:29:16;;;;;;;8.73;2.53;;;10.90;99.90;;;;;;4972960;28;20053;-64
2022/10/09 02:31:42;;;;;;;13.77;2.25;;;11.40;99.90;;;;;;4972431;28;20105;-63
2022/10/09 02:34:16;;;;;;;8.07;2.33;;;11.20;99.90;;;;;;4974154;28;20467;-64
2022/10/09 02:36:41;;;;;;;9.27;2.47;;;11.40;99.90;;;;;;4961450;28;20031;-64
2022/10/09 02:39:07;;;;;;;29.48;2.67;;;10.90;99.90;;;;;;4958223;28;20039;-62
2022/10/09 02:41:34;;;;;;;11.13;2.33;;;11.30;99.90;;;;;;4957003;28;20038;-64
2022/10/09 02:44:00;;;;;;;5.93;2.00;;;10.80;99.90;;;;;;4956357;28;20050;-64
2022/10/09 02:46:26;;;;;;;5.22;2.00;;;11.00;99.90;;;;;;4940528;28;20050;-64
2022/10/09 02:48:52;;;;;;;6.30;1.92;;;10.90;99.90;;;;;;4971726;28;20362;-63
2022/10/09 02:51:18;;;;;;;12.13;2.40;;;11.30;99.90;;;;;;4939829;28;20050;-64
2022/10/09 02:53:44;;;;;;;9.38;2.40;;;11.20;99.90;;;;;;4956841;28;21274;-64
2022/10/09 02:56:10;;;;;;;8.40;2.20;;;10.90;99.90;;;;;;4973493;28;20552;-64
2022/10/09 02:58:36;;;;;;;8.25;2.10;;;10.90;99.90;;;;;;4972887;28;20119;-64
2022/10/09 03:01:02;;;;;;;8.15;2.38;;;11.20;99.90;;;;;;4972252;28;20045;-64
2022/10/09 03:03:28;;;;;;;8.93;2.20;;;11.40;99.90;;;;;;4972715;28;20050;-63
2022/10/09 03:06:08;;;;;;;10.35;2.22;;;11.10;99.90;;;;;;4955947;28;20350;-64
2022/10/09 03:08:34;;;;;;;8.38;2.30;;;11.20;99.90;;;;;;4972577;28;20031;-64
2022/10/09 03:11:00;;;;;;;8.02;2.70;;;11.00;99.90;;;;;;4955085;28;20049;-63
2022/10/09 03:13:26;;;;;;;7.30;2.53;;;11.20;99.90;;;;;;4955418;28;20516;-64
2022/10/09 03:15:52;;;;;;;8.48;2.50;;;11.00;99.90;;;;;;4973283;28;20089;-63
2022/10/09 03:18:17;;;;;;;11.77;2.90;;;10.90;99.90;;;;;;4973052;28;20121;-64
2022/10/09 03:20:43;;;;;;;6.68;2.63;;;10.70;99.90;;;;;;4972210;28;20093;-64
2022/10/09 03:23:09;;;;;;;22.40;2.80;;;10.80;99.90;;;;;;4939258;28;20097;-63
2022/10/09 03:25:34;;;;;;;7.68;2.63;;;11.20;99.90;;;;;;4972777;28;20039;-64
2022/10/09 03:28:00;;;;;;;11.13;3.00;;;12.00;99.90;;;;;;4971549;28;20078;-63
2022/10/09 03:30:25;;;;;;;25.90;3.20;;;11.10;99.90;;;;;;4972215;28;20035;-63
2022/10/09 03:32:51;;;;;;;12.02;2.78;;;10.90;99.90;;;;;;4955121;28;20043;-64
2022/10/09 03:35:17;;;;;;;12.80;3.55;;;11.20;99.90;;;;;;4972446;28;20071;-64
2022/10/09 03:37:42;;;;;;;39.53;3.63;;;11.20;99.90;;;;;;4971021;28;20047;-63
2022/10/09 03:40:08;;;;;;;40.03;3.70;;;10.70;99.90;;;;;;4959031;28;20128;-64
2022/10/09 03:42:34;;;;;;;8.05;2.95;;;11.10;99.90;;;;;;4972191;28;20042;-64
2022/10/09 03:45:03;;;;;;;9.68;3.00;;;10.80;99.90;;;;;;4954814;28;20053;-63
2022/10/09 03:47:31;;;;;;;14.27;2.92;;;10.60;99.90;;;;;;4953670;29;20047;-64
2022/10/09 03:49:57;;;;;;;10.55;3.13;;;10.90;99.90;;;;;;4972117;28;20050;-64
2022/10/09 03:52:23;;;;;;;13.10;3.25;;;10.80;99.90;;;;;;4976895;28;20050;-64
2022/10/09 03:54:48;;;;;;;9.55;3.30;;;11.30;99.90;;;;;;4991129;28;20047;-64
2022/10/09 03:57:14;;;;;;;8.88;2.97;;;11.20;99.90;;;;;;4991526;28;20042;-63
2022/10/09 03:59:40;;;;;;;9.95;3.70;;;11.00;99.90;;;;;;4971291;28;20183;-64
2022/10/09 04:02:05;;;;;;;8.48;3.08;;;11.30;99.90;;;;;;4972063;28;20039;-63
2022/10/09 04:04:31;;;;;;;6.60;3.10;;;10.90;99.90;;;;;;4972595;28;20035;-64
2022/10/09 04:06:57;;;;;;;9.77;3.60;;;11.30;99.90;;;;;;4937242;29;20354;-64
2022/10/09 04:09:22;;;;;;;12.95;3.53;;;11.10;99.90;;;;;;4969642;28;20107;-64
2022/10/09 04:11:48;;;;;;;7.75;2.85;;;11.40;99.90;;;;;;4972420;28;20046;-64
2022/10/09 04:14:13;;;;;;;16.33;3.10;;;10.80;99.90;;;;;;4960374;28;20039;-63
2022/10/09 04:16:39;;;;;;;12.85;3.70;;;11.30;99.90;;;;;;4955050;28;20078;-64
2022/10/09 04:19:04;;;;;;;9.73;2.95;;;10.80;99.90;;;;;;4971908;28;20037;-64
2022/10/09 04:21:32;;;;;;;8.20;2.72;;;11.20;99.90;;;;;;4971803;28;20911;-64
2022/10/09 04:23:58;;;;;;;7.28;2.80;;;11.00;99.90;;;;;;4955188;28;20050;-63
2022/10/09 04:26:24;;;;;;;10.65;3.00;;;11.10;99.90;;;;;;4954202;28;20489;-63
2022/10/09 04:28:49;;;;;;;12.57;3.55;;;11.20;99.90;;;;;;4971817;28;20043;-64
2022/10/09 04:31:15;;;;;;;13.35;3.88;;;11.30;99.90;;;;;;4954958;28;20043;-64
2022/10/09 04:33:40;;;;;;;12.15;3.50;;;11.00;99.90;;;;;;4972337;28;20097;-64
2022/10/09 04:36:06;;;;;;;7.47;3.05;;;10.80;99.90;;;;;;4971346;28;20393;-64
2022/10/09 04:38:32;;;;;;;8.68;3.65;;;11.40;99.90;;;;;;4971810;28;20038;-64
2022/10/09 04:41:03;;;;;;;10.50;3.30;;;10.80;99.90;;;;;;4971330;28;20041;-64
2022/10/09 04:43:31;;;;;;;9.50;3.17;;;10.80;99.90;;;;;;4935853;29;20043;-64
2022/10/09 04:45:57;;;;;;;10.65;3.60;;;10.80;99.90;;;;;;4965825;28;20400;-64
2022/10/09 04:48:23;;;;;;;6.45;3.47;;;10.80;99.90;;;;;;4953531;28;20031;-63
2022/10/09 04:50:49;;;;;;;10.13;2.97;;;11.10;99.90;;;;;;4963350;28;20039;-64
2022/10/09 04:53:14;;;;;;;14.82;3.03;;;11.20;99.90;;;;;;4971936;28;20047;-64
2022/10/09 04:55:41;;;;;;;7.28;3.20;;;10.90;99.90;;;;;;4971642;28;20117;-64
2022/10/09 04:58:08;;;;;;;7.20;3.28;;;10.70;99.90;;;;;;4972135;28;20416;-64
2022/10/09 05:00:34;;;;;;;13.50;4.03;;;10.70;99.90;;;;;;4972087;28;20035;-63
2022/10/09 05:02:59;;;;;;;13.57;3.95;;;10.60;99.90;;;;;;4972170;28;20039;-63
2022/10/09 05:05:25;;;;;;;13.93;3.50;;;11.20;99.90;;;;;;4953701;28;20027;-64
2022/10/09 05:07:51;;;;;;;11.05;3.80;;;10.60;99.90;;;;;;4971235;28;20038;-64
2022/10/09 05:10:16;;;;;;;5.85;3.40;;;11.00;99.90;;;;;;4971264;28;20420;-64
2022/10/09 05:12:42;;;;;;;11.20;3.45;;;11.40;99.90;;;;;;4971547;28;20039;-64
2022/10/09 05:15:08;;;;;;;9.38;4.28;;;11.30;99.90;;;;;;4970610;28;20526;-64
2022/10/09 05:17:33;;;;;;;7.13;4.05;;;11.00;99.90;;;;;;4954212;28;20055;-64
2022/10/09 05:19:59;;;;;;;10.35;4.03;;;11.30;99.90;;;;;;4971871;28;20050;-64
2022/10/09 05:22:24;;;;;;;9.00;3.92;;;11.50;99.90;;;;;;4952050;28;20066;-63
2022/10/09 05:24:50;;;;;;;7.90;4.90;;;11.40;99.90;;;;;;4971738;28;20046;-64
2022/10/09 05:27:16;;;;;;;11.70;4.15;;;11.10;99.90;;;;;;4957340;28;20046;-64
2022/10/09 05:29:41;;;;;;;7.00;3.75;;;11.20;99.90;;;;;;4957682;28;20054;-64
2022/10/09 05:32:07;;;;;;;13.10;4.10;;;11.70;99.90;;;;;;4974119;28;20039;-64
2022/10/09 05:34:33;;;;;;;10.40;4.50;;;11.60;99.90;;;;;;4957836;28;20489;-64
2022/10/09 05:36:59;;;;;;;17.55;5.35;;;11.50;99.90;;;;;;4973691;28;20134;-64
2022/10/09 05:39:25;;;;;;;15.18;4.13;;;11.00;99.90;;;;;;4968700;28;20093;-64
2022/10/09 05:41:50;;;;;;;10.00;3.90;;;10.80;99.90;;;;;;4945224;28;20109;-64
2022/10/09 05:44:16;;;;;;;10.70;4.20;;;11.20;99.90;;;;;;4939892;29;20043;-64
2022/10/09 05:46:41;;;;;;;14.23;4.35;;;10.90;99.90;;;;;;4955838;29;20035;-63
2022/10/09 05:49:10;;;;;;;11.10;4.72;;;11.40;99.90;;;;;;4943869;28;20045;-64
2022/10/09 05:51:38;;;;;;;9.45;4.97;;;11.40;99.90;;;;;;4974106;28;20101;-62
2022/10/09 05:54:05;;;;;;;10.70;5.38;;;11.40;99.90;;;;;;4957916;28;20102;-64
2022/10/09 05:56:33;;;;;;;10.40;5.05;;;11.30;99.90;;;;;;4974789;28;20047;-63
2022/10/09 05:59:05;;;;;;;9.40;5.00;;;11.90;99.90;;;;;;4957458;28;20043;-64
2022/10/09 06:01:34;;;;;;;9.38;5.18;;;11.70;99.90;;;;;;4974848;28;20500;-62
2022/10/09 06:04:00;;;;;;;11.15;5.55;;;12.00;99.90;;;;;;4973915;28;20035;-64
2022/10/09 06:06:28;;;;;;;68.68;5.13;;;12.10;99.90;;;;;;4971751;28;20484;-64
2022/10/09 06:08:54;;;;;;;34.90;4.20;;;11.30;99.90;;;;;;4945019;28;20058;-64
2022/10/09 06:11:39;;;;;;;114.80;5.75;;;11.60;99.90;;;;;;4964002;28;20547;-63
2022/10/09 06:14:06;;;;;;;118.40;5.07;;;10.90;99.90;;;;;;4961898;28;20389;-64
2022/10/09 06:16:34;;;;;;;66.57;5.05;;;11.60;99.90;;;;;;4964878;28;20043;-66
2022/10/09 06:19:01;;;;;;;43.75;3.60;;;11.00;99.90;;;;;;4963408;28;20035;-66
2022/10/09 06:21:27;;;;;;;68.28;6.28;;;11.60;99.90;;;;;;4964706;28;20049;-64
2022/10/09 06:23:55;;;;;;;22.33;2.88;;;11.00;99.90;;;;;;4963228;28;20404;-66
2022/10/09 06:26:24;;;;;;;33.92;2.88;;;11.60;99.90;;;;;;4959388;28;20078;-65
2022/10/09 06:28:50;;;;;;;132.55;7.20;;;11.00;99.90;;;;;;4969417;28;20039;-62
2022/10/09 06:31:21;;;;;;;55.03;4.18;;;11.10;99.90;;;;;;4949147;28;20394;-63
2022/10/09 06:33:49;;;;;;;33.17;3.85;;;11.80;99.90;;;;;;4963255;28;20050;-62
2022/10/09 06:36:16;;;;;;;27.20;5.18;;;11.30;99.90;;;;;;4966004;28;20099;-62
2022/10/09 06:38:42;;;;;;;18.77;4.45;;;11.50;99.90;;;;;;4946795;28;20350;-62
2022/10/09 06:41:14;;;;;;;15.60;4.05;;;11.50;99.90;;;;;;4941176;28;20082;-62
2022/10/09 06:43:40;;;;;;;14.45;4.70;;;12.30;99.90;;;;;;4972531;28;20501;-63
2022/10/09 06:46:11;;;;;;;6.30;4.22;;;12.40;99.90;;;;;;4956804;28;20089;-63
2022/10/09 06:48:38;;;;;;;9.35;5.05;;;12.50;99.90;;;;;;4971768;28;20488;-62
2022/10/09 06:51:06;;;;;;;8.57;5.18;;;11.80;99.90;;;;;;4955781;28;20453;-62
2022/10/09 06:53:37;;;;;;;11.90;5.03;;;11.90;99.90;;;;;;4968613;28;20059;-63
2022/10/09 06:56:03;;;;;;;8.90;5.20;;;12.30;99.90;;;;;;4957783;28;20039;-63
2022/10/09 06:58:29;;;;;;;7.72;5.32;;;12.40;99.90;;;;;;4951701;28;20034;-63
2022/10/09 07:01:10;;;;;;;10.93;5.15;;;12.80;99.90;;;;;;4968126;28;20481;-62
2022/10/09 07:03:38;;;;;;;9.77;4.93;;;12.60;99.90;;;;;;4961787;28;20039;-62
2022/10/09 07:06:17;;;;;;;10.30;5.18;;;12.70;99.90;;;;;;4964965;28;20385;-63
2022/10/09 07:08:45;;;;;;;9.48;5.13;;;12.40;99.90;;;;;;4968507;28;20042;-63
2022/10/09 07:11:20;;;;;;;10.70;4.95;;;13.30;99.90;;;;;;4965059;28;20169;-63
2022/10/09 07:13:46;;;;;;;11.43;5.25;;;13.30;99.90;;;;;;4963344;28;20039;-62
2022/10/09 07:16:12;;;;;;;16.85;5.50;;;12.70;99.90;;;;;;4946574;28;20062;-63
2022/10/09 07:18:38;;;;;;;8.95;5.28;;;12.90;99.90;;;;;;4969426;28;20030;-63
2022/10/09 07:21:07;;;;;;;11.95;5.60;;;13.30;99.90;;;;;;4958848;28;20034;-63
2022/10/09 07:23:34;;;;;;;12.88;5.28;;;14.10;99.90;;;;;;4942755;28;20046;-63
2022/10/09 07:26:00;;;;;;;11.88;5.32;;;13.60;99.90;;;;;;4963241;28;20069;-63
2022/10/09 07:28:28;;;;;;;15.13;5.63;;;13.60;99.90;;;;;;4960418;28;20394;-62
2022/10/09 07:30:54;;;;;;;10.30;5.00;;;14.20;99.90;;;;;;4960314;28;20070;-63
2022/10/09 07:33:20;;;;;;;11.63;5.60;;;13.30;99.90;;;;;;4962506;28;20038;-63
2022/10/09 07:35:56;;;;;;;14.35;6.05;;;14.20;99.90;;;;;;4964937;28;21275;-63
2022/10/09 07:38:23;;;;;;;;;;;14.30;99.90;;;;;;4960745;28;20089;-63
2022/10/09 07:40:49;;;;;;;9.65;5.22;;;13.50;99.90;;;;;;4967252;28;19924;-63
2022/10/09 07:43:16;;;;;;;13.10;5.90;;;13.70;99.90;;;;;;4963039;28;20043;-63
2022/10/09 07:45:42;;;;;;;12.52;5.78;;;14.10;99.90;;;;;;4947021;28;20097;-64
2022/10/09 07:48:08;;;;;;;12.95;5.97;;;14.80;99.90;;;;;;4962082;28;20067;-63
2022/10/09 07:50:33;;;;;;;13.50;5.47;;;14.80;99.90;;;;;;4967904;28;20511;-64
2022/10/09 07:52:59;;;;;;;12.95;6.10;;;15.00;99.90;;;;;;4961805;28;20416;-64
2022/10/09 07:55:25;;;;;;;10.88;5.60;;;14.60;99.90;;;;;;4949170;28;20050;-64
2022/10/09 07:57:51;;;;;;;15.75;6.38;;;15.20;99.90;;;;;;4962986;28;20517;-64
2022/10/09 08:00:17;;;;;;;11.70;6.15;;;14.40;99.90;;;;;;4944935;28;20126;-64
2022/10/09 08:02:43;;;;;;;12.40;5.25;;;14.90;99.90;;;;;;4962615;28;20118;-65
2022/10/09 08:05:08;;;;;;;11.45;5.97;;;15.20;99.90;;;;;;4958993;28;20059;-64
2022/10/09 08:07:34;;;;;;;8.82;5.60;;;14.80;99.90;;;;;;4962167;28;20066;-63
2022/10/09 08:10:00;;;;;;;11.70;5.88;;;15.10;99.90;;;;;;4961436;28;20046;-64
2022/10/09 08:12:26;;;;;;;15.98;6.70;;;15.50;99.90;;;;;;4963199;28;20050;-64
2022/10/09 08:14:51;;;;;;;17.27;5.75;;;15.60;99.90;;;;;;4942662;28;20031;-64
2022/10/09 08:17:17;;;;;;;10.40;5.20;;;16.50;99.90;;;;;;4944780;28;20401;-64
2022/10/09 08:19:43;;;;;;;12.93;6.22;;;15.70;99.90;;;;;;4966844;28;20135;-64
2022/10/09 08:22:10;;;;;;;14.18;6.10;;;16.40;99.90;;;;;;4967549;28;20046;-62
2022/10/09 08:24:36;;;;;;;11.23;5.57;;;16.00;99.90;;;;;;4962743;28;20047;-61
2022/10/09 08:27:01;;;;;;;13.07;5.47;;;16.70;99.90;;;;;;4964145;28;20043;-61
2022/10/09 08:29:27;;;;;;;11.25;4.88;;;16.80;99.90;;;;;;4966950;28;20079;-62
2022/10/09 08:31:53;;;;;;;14.20;5.55;;;16.80;99.90;;;;;;4964961;28;20085;-62
2022/10/09 08:34:18;;;;;;;12.95;4.57;;;17.00;99.90;;;;;;4964762;28;20459;-61
2022/10/09 08:36:44;;;;;;;9.95;4.63;;;17.40;99.90;;;;;;4963341;28;20047;-62
2022/10/09 08:39:10;;;;;;;8.82;3.90;;;17.70;99.90;;;;;;4961770;28;20472;-62
2022/10/09 08:41:51;;;;;;;12.52;4.15;;;17.80;99.90;;;;;;4964748;28;20034;-63
2022/10/09 08:44:32;;;;;;;11.73;3.83;;;17.70;99.90;;;;;;4958198;28;20074;-64
2022/10/09 08:47:09;;;;;;;9.20;3.72;;;17.90;99.90;;;;;;4968529;28;20082;-64
2022/10/09 08:50:00;;;;;;;10.05;3.85;;;18.00;99.90;;;;;;4972954;28;20146;-65
2022/10/09 08:52:50;;;;;;;7.18;3.08;;;18.20;99.90;;;;;;4969816;28;20051;-64
2022/10/09 08:55:15;;;;;;;10.63;3.30;;;18.10;99.90;;;;;;4971031;28;20043;-65
2022/10/09 08:57:45;;;;;;;9.60;3.30;;;18.10;99.90;;;;;;4953252;29;20043;-65
2022/10/09 09:00:19;;;;;;;8.90;2.72;;;18.20;99.90;;;;;;4953349;28;20039;-65
2022/10/09 09:03:12;;;;;;;8.80;3.10;;;18.10;99.90;;;;;;4957765;28;20039;-65
2022/10/09 09:06:04;;;;;;;11.23;3.70;;;18.10;99.90;;;;;;4956844;28;20054;-65
2022/10/09 09:08:36;;;;;;;9.40;3.50;;;18.10;99.90;;;;;;4955675;28;20439;-64
2022/10/09 09:11:25;;;;;;;9.48;3.10;;;18.10;99.90;;;;;;4976224;28;20467;-65
2022/10/09 09:14:13;;;;;;;7.32;3.08;;;18.10;99.90;;;;;;4966265;28;20660;-64
2022/10/09 09:16:49;;;;;;;12.18;3.20;;;18.00;99.90;;;;;;4958187;28;20054;-65
2022/10/09 09:19:20;;;;;;;;;;;18.10;99.90;;;;;;4974502;28;20039;-65
2022/10/09 09:21:50;;;;;;;13.27;2.78;;;18.10;99.90;;;;;;4975477;28;19922;-65
2022/10/09 09:24:28;;;;;;;6.70;2.20;;;18.20;99.90;;;;;;4973518;28;20098;-65
2022/10/09 09:26:58;;;;;;;10.32;2.28;;;18.20;99.90;;;;;;4975870;28;20097;-65
2022/10/09 09:29:25;;;;;;;15.57;2.97;;;18.20;99.90;;;;;;4976225;28;20049;-65
2022/10/09 09:31:59;;;;;;;11.55;2.88;;;18.20;99.90;;;;;;4946006;29;20054;-65
2022/10/09 09:34:35;;;;;;;8.48;2.28;;;18.20;99.90;;;;;;4956565;28;20047;-65
2022/10/09 09:37:01;;;;;;;;;;;18.10;99.90;;;;;;4974454;28;20118;-64
2022/10/09 09:39:30;;;;;;;12.87;3.27;;;18.00;99.90;;;;;;4969546;28;20431;-64
2022/10/09 09:42:01;;;;;;;5.95;1.95;;;18.10;99.90;;;;;;4963719;28;20047;-62
2022/10/09 09:44:29;;;;;;;9.77;2.53;;;18.20;99.90;;;;;;4966344;28;20057;-66
2022/10/09 09:46:55;;;;;;;6.80;2.10;;;18.40;99.90;;;;;;4956603;28;20049;-65
2022/10/09 09:49:28;;;;;;;8.25;2.30;;;18.40;99.90;;;;;;4954946;28;20042;-65
2022/10/09 09:51:57;;;;;;;8.35;2.33;;;18.40;99.90;;;;;;4966582;28;20039;-66
2022/10/09 09:54:25;;;;;;;12.65;2.28;;;18.40;99.90;;;;;;4945395;28;20133;-64
2022/10/09 09:56:55;;;;;;;11.18;2.80;;;18.40;99.90;;;;;;4956882;28;20592;-65
2022/10/09 09:59:40;;;;;;;6.55;2.30;;;18.10;99.90;;;;;;4969769;28;20401;-66
2022/10/09 10:02:11;;;;;;;10.93;2.40;;;18.10;99.90;;;;;;4961759;28;20133;-65
2022/10/09 10:04:37;;;;;;;10.63;2.40;;;18.20;99.90;;;;;;4970712;28;20035;-66
2022/10/09 10:07:04;;;;;;;6.43;2.20;;;18.20;99.90;;;;;;4969790;28;20481;-65
2022/10/09 10:09:30;;;;;;;5.45;2.08;;;18.30;99.90;;;;;;4947737;28;20054;-64
2022/10/09 10:12:02;;;;;;;9.25;2.65;;;18.20;99.90;;;;;;4962978;28;20175;-65
2022/10/09 10:14:29;;;;;;;12.75;2.28;;;18.30;99.90;;;;;;4962014;28;20047;-65
2022/10/09 10:16:57;;;;;;;6.55;1.88;;;18.40;99.90;;;;;;4920908;28;20057;-65
2022/10/09 10:19:30;;;;;;;7.18;2.13;;;18.40;99.90;;;;;;4920986;28;20051;-66
2022/10/09 10:22:05;;;;;;;6.07;2.15;;;18.40;99.90;;;;;;4954726;28;20053;-65
2022/10/09 10:24:32;;;;;;;7.82;2.25;;;18.50;99.90;;;;;;4959250;28;20129;-66
2022/10/09 10:27:04;;;;;;;8.15;1.90;;;18.40;99.90;;;;;;4970257;28;20468;-64
2022/10/09 10:29:37;;;;;;;10.05;2.53;;;18.50;99.90;;;;;;4936006;28;20419;-65
2022/10/09 10:32:33;;;;;;;8.40;1.70;;;18.50;99.90;;;;;;4968395;28;20058;-66
2022/10/09 10:35:18;;;;;;;9.60;1.90;;;18.50;99.90;;;;;;4963772;28;20050;-65
2022/10/09 10:38:15;;;;;;;4.80;1.60;;;18.40;99.90;;;;;;4971800;28;20043;-66
2022/10/09 10:41:18;;;;;;;10.93;2.28;;;18.50;99.90;;;;;;4938197;28;20043;-65
2022/10/09 10:43:49;;;;;;;6.88;1.70;;;18.50;99.90;;;;;;4962336;28;20385;-65
2022/10/09 10:46:40;;;;;;;13.32;2.20;;;18.60;99.90;;;;;;4953432;28;20051;-65
2022/10/09 10:49:10;;;;;;;9.43;2.08;;;18.50;99.90;;;;;;4974635;28;20034;-65
2022/10/09 10:51:46;;;;;;;10.07;2.17;;;18.40;99.90;;;;;;4969319;28;20045;-64
2022/10/09 10:54:26;;;;;;;8.35;2.42;;;18.80;99.90;;;;;;4965064;28;20054;-65
2022/10/09 10:57:01;;;;;;;12.27;2.70;;;18.50;99.90;;;;;;4955196;28;20078;-65
2022/10/09 10:59:41;;;;;;;9.38;2.13;;;18.90;99.90;;;;;;4955424;28;20122;-65
2022/10/09 11:02:43;;;;;;;12.85;2.15;;;18.50;99.90;;;;;;4967629;28;20066;-65
2022/10/09 11:05:27;;;;;;;7.60;1.80;;;18.40;99.90;;;;;;4964572;28;20130;-65
2022/10/09 11:08:33;;;;;;;10.57;2.83;;;18.30;99.90;;;;;;4967285;28;20481;-65
2022/10/09 11:11:02;;;;;;;7.78;1.88;;;18.20;99.90;;;;;;4938141;28;20087;-66
2022/10/09 11:13:37;;;;;;;7.55;1.90;;;18.20;99.40;;;;;;4972950;28;20089;-65
2022/10/09 11:16:34;;;;;;;6.57;2.10;;;18.20;99.90;;;;;;4946658;28;20042;-65
2022/10/09 11:19:06;;;;;;;12.15;2.55;;;18.20;1.00;;;;;;4967568;28;20062;-65
2022/10/09 11:21:44;;;;;;;12.13;2.10;;;18.30;27.00;;;;;;4949987;28;20130;-65
2022/10/09 11:24:35;;;;;;;6.93;1.90;;;18.30;99.90;;;;;;4938469;29;20046;-65
2022/10/09 11:27:23;;;;;;;10.52;1.90;;;18.30;1.00;;;;;;4945634;28;20042;-65
2022/10/09 11:29:59;;;;;;;5.32;1.70;;;18.20;1.00;;;;;;4968344;28;20142;-64
2022/10/09 11:32:54;;;;;;;6.32;2.10;;;18.20;85.00;;;;;;4964688;28;20043;-67
2022/10/09 11:35:29;;;;;;;7.28;1.65;;;18.20;23.50;;;;;;4942924;28;20457;-67
2022/10/09 11:38:02;;;;;;;5.45;1.30;;;18.30;99.90;;;;;;4950440;28;20054;-67
2022/10/09 11:40:38;;;;;;;6.70;1.52;;;18.30;36.50;;;;;;4941035;28;20081;-66
2022/10/09 11:43:13;;;;;;;12.73;2.03;;;18.30;99.90;;;;;;4966959;28;20051;-67
2022/10/09 11:45:46;;;;;;;9.75;2.20;;;18.30;99.90;;;;;;4971384;28;20043;-67
2022/10/09 11:48:24;;;;;;;9.52;1.70;;;18.20;1.00;;;;;;4949670;28;20161;-67
2022/10/09 11:50:55;;;;;;;6.80;1.75;;;18.20;99.90;;;;;;4964566;28;20053;-66
2022/10/09 11:53:23;;;;;;;6.20;1.65;;;18.20;99.90;;;;;;4960931;28;20091;-67
2022/10/09 11:56:07;;;;;;;7.03;1.20;;;18.20;99.90;;;;;;4971502;28;20051;-66
2022/10/09 11:58:34;;;;;;;5.90;1.80;;;18.20;1.00;;;;;;4970459;28;20031;-67
2022/10/09 12:01:22;;;;;;;8.23;1.80;;;18.20;1.00;;;;;;4955493;28;20049;-66
2022/10/09 12:04:03;;;;;;;3.53;1.40;;;18.20;99.90;;;;;;4954593;28;20213;-67
2022/10/09 12:06:29;;;;;;;8.70;2.05;;;18.30;99.90;;;;;;4955044;28;20046;-67
2022/10/09 12:09:00;;;;;;;6.80;1.75;;;18.20;87.10;;;;;;4946693;28;20115;-65
2022/10/09 12:11:27;;;;;;;4.57;1.73;;;18.20;1.00;;;;;;4966088;28;20043;-66
2022/10/09 12:13:57;;;;;;;6.70;1.95;;;18.20;1.00;;;;;;4963240;28;20054;-67
2022/10/09 12:16:33;;;;;;;7.35;1.90;;;18.20;1.00;;;;;;4947666;28;20536;-67
2022/10/09 12:19:03;;;;;;;5.70;1.65;;;18.30;1.00;;;;;;4929115;28;20047;-66
2022/10/09 12:21:44;;;;;;;5.95;1.75;;;18.20;99.90;;;;;;4953164;28;20057;-66
2022/10/09 12:24:23;;;;;;;5.05;1.77;;;18.20;99.90;;;;;;4946502;28;20050;-66
2022/10/09 12:26:52;;;;;;;6.00;1.83;;;18.20;99.90;;;;;;4943354;28;20046;-66
2022/10/09 12:29:27;;;;;;;9.07;2.20;;;18.20;99.90;;;;;;4968395;28;20481;-65
2022/10/09 12:31:56;;;;;;;7.13;1.70;;;18.20;99.90;;;;;;4968250;28;20039;-66
2022/10/09 12:34:26;;;;;;;6.05;1.60;;;18.20;99.90;;;;;;4963224;28;20066;-66
2022/10/09 12:37:13;;;;;;;9.27;2.03;;;18.30;62.40;;;;;;4953588;28;20050;-67
2022/10/09 12:39:39;;;;;;;9.23;2.30;;;18.20;1.00;;;;;;4970570;28;20042;-66
2022/10/09 12:42:12;;;;;;;8.52;1.83;;;18.50;1.00;;;;;;4969073;28;20460;-67
2022/10/09 12:44:38;;;;;;;8.98;1.80;;;18.20;1.00;;;;;;4974406;28;20114;-66
2022/10/09 12:47:13;;;;;;;9.85;2.40;;;18.20;1.00;;;;;;4946840;28;20050;-66
2022/10/09 12:49:39;;;;;;;11.83;2.27;;;18.20;1.00;;;;;;4963450;28;20050;-66
2022/10/09 12:52:13;;;;;;;9.52;2.53;;;18.20;1.00;;;;;;4946970;28;20484;-67
2022/10/09 12:54:42;;;;;;;10.13;2.08;;;18.40;85.10;;;;;;4968009;28;20066;-68
2022/10/09 12:57:13;;;;;;;15.88;2.97;;;18.80;16.30;;;;;;4951299;28;20089;-66
2022/10/09 12:59:39;;;;;;;8.57;2.15;;;18.30;1.00;;;;;;4972336;28;20043;-67